createdAt,value
2023-01-15T00:02:09.460Z,99.9
2023-01-15T00:04:57.521Z,99.4
2023-01-15T00:07:47.577Z,99
2023-01-15T00:10:35.665Z,99.2
2023-01-15T00:13:23.307Z,98.8
2023-01-15T00:16:13.507Z,98.9
2023-01-15T00:19:03.536Z,98.8
2023-01-15T00:21:53.703Z,98.9
2023-01-15T00:24:41.754Z,98.1
2023-01-15T00:28:01.822Z,97.8
2023-01-15T00:30:49.680Z,98.2
2023-01-15T00:33:37.032Z,98.1
2023-01-15T00:36:24.307Z,98.3
2023-01-15T00:39:11.777Z,97.7
2023-01-15T00:41:59.149Z,98.1
2023-01-15T00:44:46.518Z,97.8
2023-01-15T00:47:33.925Z,97.7
2023-01-15T00:50:21.624Z,98
2023-01-15T00:53:09.205Z,98.1
2023-01-15T00:55:57.230Z,97.8
2023-01-15T00:58:44.517Z,97.5
2023-01-15T01:01:32.640Z,97.4
2023-01-15T01:04:20.337Z,97.7
2023-01-15T01:07:07.645Z,97.9
2023-01-15T01:09:55.924Z,97.8
2023-01-15T01:12:43.265Z,98
2023-01-15T01:15:33.172Z,98.2
2023-01-15T01:18:21.386Z,97.7
2023-01-15T01:21:09.106Z,97.6
2023-01-15T01:23:57.142Z,97.9
2023-01-15T01:26:45.785Z,97.6
2023-01-15T01:29:33.810Z,97.8
2023-01-15T01:32:21.194Z,97.6
2023-01-15T01:35:08.588Z,97.1
2023-01-15T01:37:56.796Z,96.7
2023-01-15T01:40:44.174Z,96.5
2023-01-15T01:43:31.519Z,96.6
2023-01-15T01:46:39.261Z,96.6
2023-01-15T01:49:26.525Z,96.6
2023-01-15T01:52:14.186Z,96.2
2023-01-15T01:55:06.057Z,96.7
2023-01-15T01:57:55.755Z,96.4
2023-01-15T02:00:45.790Z,96.2
2023-01-15T02:03:35.679Z,96.2
2023-01-15T02:06:24.100Z,96.4
2023-01-15T02:09:13.707Z,96.5
2023-01-15T02:12:01.097Z,96
2023-01-15T02:14:56.256Z,96.1
2023-01-15T02:17:52.664Z,95.9
2023-01-15T02:20:45.773Z,96
2023-01-15T02:23:38.119Z,96
2023-01-15T02:26:46.905Z,96.7
2023-01-15T02:29:49.940Z,97.2
2023-01-15T02:32:44.096Z,97.6
2023-01-15T02:35:36.056Z,98
2023-01-15T02:38:28.378Z,98.6
2023-01-15T02:41:21.047Z,99.1
2023-01-15T02:44:13.681Z,99.8
2023-01-15T02:47:05.275Z,100
2023-01-15T02:49:56.129Z,100
2023-01-15T02:52:49.924Z,100
2023-01-15T02:55:42.439Z,100
2023-01-15T02:58:35.026Z,99.8
2023-01-15T03:01:25.034Z,99.6
2023-01-15T03:04:18.569Z,99.2
2023-01-15T03:07:13.231Z,98.4
2023-01-15T03:10:07.480Z,98.8
2023-01-15T03:12:56.595Z,98.6
2023-01-15T03:15:47.941Z,99.4
2023-01-15T03:19:17.483Z,100
2023-01-15T03:22:11.038Z,100
2023-01-15T03:25:03.201Z,100
2023-01-15T03:27:55.779Z,100
2023-01-15T03:30:46.400Z,100
2023-01-15T03:33:33.965Z,100
2023-01-15T03:36:21.572Z,100
2023-01-15T03:39:09.104Z,99.7
2023-01-15T03:41:57.493Z,99.7
2023-01-15T03:44:55.844Z,99.6
2023-01-15T03:47:51.707Z,99.4
2023-01-15T03:50:45.605Z,98.9
2023-01-15T03:53:37.287Z,99.4
2023-01-15T03:56:29.004Z,99.4
2023-01-15T03:59:20.621Z,99.1
2023-01-15T04:02:14.049Z,99.2
2023-01-15T04:05:05.414Z,99.6
2023-01-15T04:07:53.215Z,99
2023-01-15T04:10:43.734Z,99.3
2023-01-15T04:13:40.021Z,99.1
2023-01-15T04:16:27.251Z,99.3
2023-01-15T04:19:16.640Z,99.5
2023-01-15T04:22:03.970Z,99.7
2023-01-15T04:24:51.322Z,99.4
2023-01-15T04:27:39.755Z,100
2023-01-15T04:30:27.056Z,100
2023-01-15T04:33:14.430Z,100
2023-01-15T04:36:01.772Z,100
2023-01-15T04:38:49.982Z,100
2023-01-15T04:41:39.153Z,100
2023-01-15T04:44:57.988Z,100
2023-01-15T04:47:45.443Z,100
2023-01-15T04:50:32.749Z,100
2023-01-15T04:53:20.066Z,100
2023-01-15T04:56:07.476Z,100
2023-01-15T04:58:55.026Z,100
2023-01-15T05:02:01.783Z,100
2023-01-15T05:04:49.622Z,100
2023-01-15T05:07:37.028Z,100
2023-01-15T05:10:24.357Z,100
2023-01-15T05:13:11.652Z,100
2023-01-15T05:15:58.956Z,100
2023-01-15T05:18:56.241Z,100
2023-01-15T05:21:47.066Z,100
2023-01-15T05:24:34.465Z,100
2023-01-15T05:27:21.913Z,100
2023-01-15T05:30:09.493Z,100
2023-01-15T05:32:59.005Z,100
2023-01-15T05:35:46.377Z,100
2023-01-15T05:38:33.614Z,100
2023-01-15T05:41:21.386Z,100
2023-01-15T05:44:40.698Z,100
2023-01-15T05:47:28.143Z,100
2023-01-15T05:50:15.580Z,100
2023-01-15T05:53:02.995Z,100
2023-01-15T05:55:50.356Z,100
2023-01-15T05:58:37.539Z,100
2023-01-15T06:01:25.008Z,100
2023-01-15T06:04:12.496Z,100
2023-01-15T06:07:02.245Z,100
2023-01-15T06:09:49.571Z,100
2023-01-15T06:12:36.908Z,100
2023-01-15T06:15:24.116Z,100
2023-01-15T06:18:11.464Z,100
2023-01-15T06:20:58.896Z,100
2023-01-15T06:23:48.803Z,100
2023-01-15T06:26:38.975Z,100
2023-01-15T06:29:26.334Z,100
2023-01-15T06:32:13.659Z,100
2023-01-15T06:35:01.544Z,100
2023-01-15T06:37:49.416Z,100
2023-01-15T06:40:37.507Z,100
2023-01-15T06:43:24.867Z,100
2023-01-15T06:46:44.233Z,100
2023-01-15T06:50:05.267Z,100
2023-01-15T06:52:53.734Z,100
2023-01-15T06:55:40.978Z,100
2023-01-15T06:58:28.567Z,100
2023-01-15T07:01:15.970Z,100
2023-01-15T07:04:03.400Z,100
2023-01-15T07:06:50.827Z,100
2023-01-15T07:09:38.201Z,100
2023-01-15T07:12:25.499Z,100
2023-01-15T07:15:12.791Z,100
2023-01-15T07:18:00.259Z,100
2023-01-15T07:20:49.109Z,100
2023-01-15T07:23:40.044Z,100
2023-01-15T07:26:27.696Z,100
2023-01-15T07:29:15.033Z,100
2023-01-15T07:32:02.513Z,100
2023-01-15T07:34:50.533Z,100
2023-01-15T07:37:37.949Z,100
2023-01-15T07:40:25.273Z,100
2023-01-15T07:43:12.505Z,100
2023-01-15T07:46:32.033Z,100
2023-01-15T07:51:19.493Z,100
2023-01-15T07:54:06.825Z,100
2023-01-15T07:56:54.175Z,100
2023-01-15T07:59:41.922Z,100
2023-01-15T08:02:29.578Z,100
2023-01-15T08:05:17.375Z,100
2023-01-15T08:08:05.124Z,100
2023-01-15T08:11:00.102Z,100
2023-01-15T08:14:19.878Z,100
2023-01-15T08:17:38.956Z,100
2023-01-15T08:20:28.639Z,100
2023-01-15T08:23:16.168Z,100
2023-01-15T08:26:03.494Z,100
2023-01-15T08:28:51.502Z,100
2023-01-15T08:31:38.919Z,100
2023-01-15T08:34:26.344Z,100
2023-01-15T08:37:13.772Z,100
2023-01-15T08:40:01.373Z,100
2023-01-15T08:42:50.549Z,100
2023-01-15T08:45:39.002Z,100
2023-01-15T08:48:26.298Z,100
2023-01-15T08:51:15.681Z,100
2023-01-15T08:54:03.949Z,100
2023-01-15T08:56:51.513Z,100
2023-01-15T08:59:38.997Z,100
2023-01-15T09:02:27.957Z,100
2023-01-15T09:05:15.383Z,100
2023-01-15T09:08:03.641Z,100
2023-01-15T09:10:52.454Z,100
2023-01-15T09:13:44.434Z,100
2023-01-15T09:16:32.966Z,100
2023-01-15T09:19:21.022Z,100
2023-01-15T09:22:08.447Z,100
2023-01-15T09:24:56.546Z,100
2023-01-15T09:27:44.350Z,100
2023-01-15T09:30:34.380Z,100
2023-01-15T09:33:21.655Z,100
2023-01-15T09:36:09.465Z,100
2023-01-15T09:39:01.593Z,100
2023-01-15T09:41:49.934Z,100
2023-01-15T09:44:52.866Z,100
2023-01-15T09:47:56.794Z,100
2023-01-15T09:50:59.277Z,100
2023-01-15T09:53:57.113Z,100
2023-01-15T09:57:00.121Z,100
2023-01-15T09:59:48.810Z,100
2023-01-15T10:02:45.564Z,100
2023-01-15T10:05:37.932Z,100
2023-01-15T10:08:31.153Z,100
2023-01-15T10:11:22.204Z,100
2023-01-15T10:15:20.977Z,100
2023-01-15T10:18:14.739Z,100
2023-01-15T10:21:04.426Z,100
2023-01-15T10:24:08.860Z,100
2023-01-15T10:27:03.624Z,100
2023-01-15T10:30:00.424Z,100
2023-01-15T10:33:02.911Z,100
2023-01-15T10:36:05.575Z,100
2023-01-15T10:38:58.517Z,100
2023-01-15T10:41:56.482Z,100
2023-01-15T10:44:55.487Z,100
2023-01-15T10:47:49.706Z,100
2023-01-15T10:50:42.707Z,100
2023-01-15T10:53:31.019Z,100
2023-01-15T10:56:25.515Z,100
2023-01-15T10:59:18.875Z,100
2023-01-15T11:02:13.254Z,100
2023-01-15T11:05:10.997Z,100
2023-01-15T11:08:58.333Z,100
2023-01-15T11:12:06.000Z,100
2023-01-15T11:15:38.036Z,100
2023-01-15T11:19:02.134Z,100
2023-01-15T11:22:23.103Z,100
2023-01-15T11:25:13.220Z,100
2023-01-15T11:28:11.434Z,100
2023-01-15T11:31:00.218Z,100
2023-01-15T11:33:48.551Z,100
2023-01-15T11:36:44.303Z,100
2023-01-15T11:39:32.104Z,100
2023-01-15T11:42:19.568Z,100
2023-01-15T11:45:38.920Z,100
2023-01-15T11:49:04.990Z,100
2023-01-15T11:52:27.232Z,100
2023-01-15T11:55:15.127Z,100
2023-01-15T11:58:06.199Z,100
2023-01-15T12:00:55.274Z,100
2023-01-15T12:03:43.000Z,100
2023-01-15T12:06:30.992Z,100
2023-01-15T12:09:24.999Z,100
2023-01-15T12:12:27.782Z,100
2023-01-15T12:15:27.170Z,100
2023-01-15T12:18:23.990Z,100
2023-01-15T12:21:25.853Z,100
2023-01-15T12:24:31.862Z,100
2023-01-15T12:27:59.122Z,100
2023-01-15T12:30:52.645Z,100
2023-01-15T12:33:45.562Z,100
2023-01-15T12:36:37.728Z,100
2023-01-15T12:39:32.035Z,100
2023-01-15T12:42:28.395Z,100
2023-01-15T12:47:20.762Z,100
2023-01-15T12:50:13.955Z,100
2023-01-15T12:53:15.218Z,100
2023-01-15T12:56:15.003Z,100
2023-01-15T12:59:08.460Z,100
2023-01-15T13:02:03.829Z,100
2023-01-15T13:05:02.247Z,100
2023-01-15T13:08:01.886Z,100
2023-01-15T13:10:57.184Z,100
2023-01-15T13:13:44.804Z,100
2023-01-15T13:16:42.553Z,100
2023-01-15T13:19:38.892Z,100
2023-01-15T13:22:35.668Z,100
2023-01-15T13:25:35.775Z,100
2023-01-15T13:28:43.106Z,100
2023-01-15T13:31:46.895Z,100
2023-01-15T13:34:44.577Z,100
2023-01-15T13:37:39.610Z,100
2023-01-15T13:40:30.244Z,100
2023-01-15T13:43:23.187Z,100
2023-01-15T13:46:19.161Z,100
2023-01-15T13:49:06.997Z,100
2023-01-15T13:52:05.253Z,100
2023-01-15T13:55:07.440Z,100
2023-01-15T13:58:04.701Z,100
2023-01-15T14:01:11.906Z,100
2023-01-15T14:04:10.160Z,100
2023-01-15T14:07:00.449Z,100
2023-01-15T14:09:47.853Z,100
2023-01-15T14:12:35.412Z,100
2023-01-15T14:15:38.241Z,100
2023-01-15T14:18:33.859Z,100
2023-01-15T14:21:42.329Z,100
2023-01-15T14:24:38.001Z,100
2023-01-15T14:27:38.307Z,100
2023-01-15T14:30:42.195Z,100
2023-01-15T14:33:52.892Z,100
2023-01-15T14:36:57.722Z,100
2023-01-15T14:39:49.011Z,100
2023-01-15T14:42:40.303Z,100
2023-01-15T14:45:59.417Z,100
2023-01-15T14:48:59.427Z,100
2023-01-15T14:51:47.452Z,100
2023-01-15T14:54:36.017Z,100
2023-01-15T14:57:25.081Z,100
2023-01-15T15:00:13.844Z,100
2023-01-15T15:03:04.987Z,100
2023-01-15T15:06:02.294Z,100
2023-01-15T15:08:51.633Z,100
2023-01-15T15:11:45.339Z,100
2023-01-15T15:15:05.910Z,100
2023-01-15T15:18:01.361Z,100
2023-01-15T15:20:54.190Z,100
2023-01-15T15:23:50.153Z,100
2023-01-15T15:26:44.479Z,100
2023-01-15T15:29:31.911Z,100
2023-01-15T15:32:19.308Z,100
2023-01-15T15:35:09.667Z,100
2023-01-15T15:38:10.828Z,100
2023-01-15T15:41:01.869Z,100
2023-01-15T15:43:53.173Z,100
2023-01-15T15:47:15.510Z,100
2023-01-15T15:50:36.488Z,100
2023-01-15T15:53:24.519Z,100
2023-01-15T15:56:11.942Z,100
2023-01-15T15:59:00.316Z,100
2023-01-15T16:01:49.924Z,100
2023-01-15T16:04:37.653Z,100
2023-01-15T16:07:30.307Z,100
2023-01-15T16:10:19.017Z,100
2023-01-15T16:13:11.840Z,100
2023-01-15T16:16:09.759Z,100
2023-01-15T16:19:00.977Z,100
2023-01-15T16:21:49.681Z,100
2023-01-15T16:24:38.259Z,100
2023-01-15T16:27:27.095Z,100
2023-01-15T16:30:20.237Z,100
2023-01-15T16:33:08.501Z,100
2023-01-15T16:36:01.154Z,100
2023-01-15T16:38:52.401Z,100
2023-01-15T16:41:40.928Z,100
2023-01-15T16:44:28.498Z,100
2023-01-15T16:47:24.644Z,100
2023-01-15T16:50:16.509Z,100
2023-01-15T16:53:16.906Z,100
2023-01-15T16:56:34.937Z,100
2023-01-15T16:59:39.908Z,100
2023-01-15T17:02:40.919Z,100
2023-01-15T17:05:31.121Z,100
2023-01-15T17:08:18.645Z,100
2023-01-15T17:11:12.318Z,100
2023-01-15T17:14:05.972Z,100
2023-01-15T17:16:56.615Z,100
2023-01-15T17:20:03.029Z,100
2023-01-15T17:22:53.823Z,100
2023-01-15T17:25:41.435Z,100
2023-01-15T17:28:28.797Z,100
2023-01-15T17:31:16.466Z,100
2023-01-15T17:34:11.231Z,100
2023-01-15T17:36:58.765Z,100
2023-01-15T17:39:46.267Z,100
2023-01-15T17:42:34.003Z,100
2023-01-15T17:45:21.733Z,100
2023-01-15T17:48:10.946Z,100
2023-01-15T17:50:58.941Z,100
2023-01-15T17:53:46.459Z,100
2023-01-15T17:56:33.829Z,100
2023-01-15T17:59:52.717Z,100
2023-01-15T18:03:13.644Z,100
2023-01-15T18:06:37.765Z,100
2023-01-15T18:09:31.826Z,100
2023-01-15T18:12:20.689Z,100
2023-01-15T18:15:08.211Z,100
2023-01-15T18:17:56.979Z,100
2023-01-15T18:20:44.495Z,100
2023-01-15T18:23:31.851Z,100
2023-01-15T18:26:23.849Z,100
2023-01-15T18:29:11.495Z,100
2023-01-15T18:31:59.260Z,100
2023-01-15T18:34:46.624Z,100
2023-01-15T18:37:33.943Z,100
2023-01-15T18:40:21.244Z,100
2023-01-15T18:43:11.837Z,100
2023-01-15T18:46:30.822Z,100
2023-01-15T18:49:34.946Z,100
2023-01-15T18:52:22.741Z,100
2023-01-15T18:55:41.735Z,100
2023-01-15T18:58:29.039Z,100
2023-01-15T19:01:16.905Z,100
2023-01-15T19:04:04.299Z,100
2023-01-15T19:06:55.222Z,100
2023-01-15T19:09:42.792Z,100
2023-01-15T19:12:30.093Z,100
2023-01-15T19:15:19.626Z,100
2023-01-15T19:18:39.070Z,100
2023-01-15T19:21:26.447Z,100
2023-01-15T19:24:13.766Z,100
2023-01-15T19:27:01.356Z,100
2023-01-15T19:29:49.284Z,100
2023-01-15T19:32:36.904Z,100
2023-01-15T19:35:24.126Z,100
2023-01-15T19:38:11.482Z,100
2023-01-15T19:40:59.483Z,100
2023-01-15T19:53:03.455Z,100
2023-01-15T19:55:52.406Z,100
2023-01-15T19:58:39.892Z,100
2023-01-15T20:01:27.565Z,100
2023-01-15T20:04:14.983Z,100
2023-01-15T20:07:02.212Z,100
2023-01-15T20:09:49.533Z,100
2023-01-15T20:12:36.820Z,100
2023-01-15T20:15:57.858Z,100
2023-01-15T20:18:52.615Z,100
2023-01-15T20:21:40.584Z,100
2023-01-15T20:24:27.870Z,100
2023-01-15T20:27:15.365Z,100
2023-01-15T20:30:02.990Z,100
2023-01-15T20:32:55.099Z,100
2023-01-15T20:35:43.058Z,100
2023-01-15T20:38:30.448Z,100
2023-01-15T20:41:17.735Z,100
2023-01-15T20:44:36.866Z,100
2023-01-15T20:47:39.728Z,100
2023-01-15T20:50:59.563Z,100
2023-01-15T20:53:57.011Z,100
2023-01-15T20:56:44.272Z,100
2023-01-15T20:59:31.696Z,100
2023-01-15T21:02:18.866Z,100
2023-01-15T21:05:06.325Z,100
2023-01-15T21:07:54.798Z,100
2023-01-15T21:10:42.475Z,100
2023-01-15T21:13:29.740Z,100
2023-01-15T21:16:17.006Z,100
2023-01-15T21:19:04.442Z,100
2023-01-15T21:21:52.005Z,100
2023-01-15T21:24:39.312Z,100
2023-01-15T21:27:26.609Z,100
2023-01-15T21:30:14.298Z,100
2023-01-15T21:33:02.005Z,100
2023-01-15T21:35:49.796Z,100
2023-01-15T21:38:37.110Z,100
2023-01-15T21:41:25.029Z,100
2023-01-15T21:47:16.104Z,100
2023-01-15T21:50:04.839Z,100
2023-01-15T21:52:53.659Z,100
2023-01-15T21:55:40.976Z,100
2023-01-15T21:58:33.758Z,100
2023-01-15T22:01:21.905Z,100
2023-01-15T22:04:10.670Z,100
2023-01-15T22:06:58.373Z,100
2023-01-15T22:09:45.754Z,100
2023-01-15T22:12:33.055Z,100
2023-01-15T22:15:23.992Z,100
2023-01-15T22:18:11.561Z,100
2023-01-15T22:20:58.893Z,100
2023-01-15T22:23:49.277Z,100
2023-01-15T22:26:36.731Z,100
2023-01-15T22:29:27.779Z,100
2023-01-15T22:32:17.571Z,100
2023-01-15T22:35:04.817Z,100
2023-01-15T22:37:53.495Z,100
2023-01-15T22:40:40.885Z,100
2023-01-15T22:43:28.201Z,100
2023-01-15T22:46:16.772Z,100
2023-01-15T22:49:04.148Z,100
2023-01-15T22:51:51.448Z,100
2023-01-15T22:54:39.099Z,100
2023-01-15T22:57:29.323Z,100
2023-01-15T23:00:16.730Z,100
2023-01-15T23:03:04.263Z,100
2023-01-15T23:05:51.761Z,100
2023-01-15T23:08:38.961Z,100
2023-01-15T23:11:26.345Z,100
2023-01-15T23:14:14.805Z,100
2023-01-15T23:17:03.038Z,100
2023-01-15T23:19:50.216Z,100
2023-01-15T23:22:37.518Z,100
2023-01-15T23:25:24.825Z,100
2023-01-15T23:28:12.221Z,100
2023-01-15T23:30:59.472Z,100
2023-01-15T23:33:46.998Z,100
2023-01-15T23:36:34.630Z,100
2023-01-15T23:39:22.117Z,100
2023-01-15T23:42:09.301Z,100
2023-01-15T23:45:28.702Z,100
2023-01-15T23:49:32.670Z,100
2023-01-15T23:52:20.472Z,100
2023-01-15T23:55:07.751Z,100
2023-01-15T23:57:55.562Z,100
